sensor_id;sensor_type;location;lat;lon;timestamp;pressure;altitude;pressure_sealevel;temperature;humidity
60920;BME280;59039;52.108;19.942;2023-12-04T00:01:45;101093.61;;;-1.92;86.62
60920;BME280;59039;52.108;19.942;2023-12-04T00:04:11;101097.49;;;-1.91;86.48
60920;BME280;59039;52.108;19.942;2023-12-04T00:06:36;101094.63;;;-1.91;86.57
60920;BME280;59039;52.108;19.942;2023-12-04T00:09:01;101097.25;;;-1.90;86.56
60920;BME280;59039;52.108;19.942;2023-12-04T00:11:26;101100.58;;;-1.89;86.59
60920;BME280;59039;52.108;19.942;2023-12-04T00:13:52;101098.61;;;-1.88;86.44
60920;BME280;59039;52.108;19.942;2023-12-04T00:16:17;101103.56;;;-1.87;86.44
60920;BME280;59039;52.108;19.942;2023-12-04T00:18:42;101106.23;;;-1.87;86.37
60920;BME280;59039;52.108;19.942;2023-12-04T00:21:07;101105.14;;;-1.87;86.41
60920;BME280;59039;52.108;19.942;2023-12-04T00:23:33;101107.25;;;-1.86;86.23
60920;BME280;59039;52.108;19.942;2023-12-04T00:25:58;101112.93;;;-1.86;86.21
60920;BME280;59039;52.108;19.942;2023-12-04T00:28:23;101114.89;;;-1.86;86.07
60920;BME280;59039;52.108;19.942;2023-12-04T00:30:48;101123.05;;;-1.86;85.96
60920;BME280;59039;52.108;19.942;2023-12-04T00:33:13;101122.52;;;-1.86;85.85
60920;BME280;59039;52.108;19.942;2023-12-04T00:35:39;101121.29;;;-1.87;85.72
60920;BME280;59039;52.108;19.942;2023-12-04T00:38:04;101121.65;;;-1.87;85.69
60920;BME280;59039;52.108;19.942;2023-12-04T00:40:29;101126.15;;;-1.88;85.71
60920;BME280;59039;52.108;19.942;2023-12-04T00:42:54;101125.87;;;-1.90;85.42
60920;BME280;59039;52.108;19.942;2023-12-04T00:45:19;101120.95;;;-1.92;85.46
60920;BME280;59039;52.108;19.942;2023-12-04T00:47:45;101125.61;;;-1.93;85.43
60920;BME280;59039;52.108;19.942;2023-12-04T00:50:10;101125.38;;;-1.96;85.33
60920;BME280;59039;52.108;19.942;2023-12-04T00:52:36;101132.25;;;-1.99;85.32
60920;BME280;59039;52.108;19.942;2023-12-04T00:55:01;101135.02;;;-2.02;85.33
60920;BME280;59039;52.108;19.942;2023-12-04T00:57:26;101138.39;;;-2.06;85.16
60920;BME280;59039;52.108;19.942;2023-12-04T00:59:51;101143.42;;;-2.09;85.02
60920;BME280;59039;52.108;19.942;2023-12-04T01:02:17;101146.00;;;-2.11;85.03
60920;BME280;59039;52.108;19.942;2023-12-04T01:04:42;101148.36;;;-2.13;84.90
60920;BME280;59039;52.108;19.942;2023-12-04T01:07:07;101152.36;;;-2.15;84.91
60920;BME280;59039;52.108;19.942;2023-12-04T01:09:36;101156.84;;;-2.16;85.06
60920;BME280;59039;52.108;19.942;2023-12-04T01:12:01;101157.46;;;-2.19;85.06
60920;BME280;59039;52.108;19.942;2023-12-04T01:14:27;101160.86;;;-2.20;85.06
60920;BME280;59039;52.108;19.942;2023-12-04T01:16:52;101158.80;;;-2.21;85.01
60920;BME280;59039;52.108;19.942;2023-12-04T01:19:17;101160.44;;;-2.23;84.99
60920;BME280;59039;52.108;19.942;2023-12-04T01:21:42;101161.15;;;-2.22;85.11
60920;BME280;59039;52.108;19.942;2023-12-04T01:24:08;101160.27;;;-2.22;85.01
60920;BME280;59039;52.108;19.942;2023-12-04T01:26:33;101161.30;;;-2.22;85.07
60920;BME280;59039;52.108;19.942;2023-12-04T01:28:58;101161.16;;;-2.23;85.02
60920;BME280;59039;52.108;19.942;2023-12-04T01:31:24;101161.73;;;-2.24;85.01
60920;BME280;59039;52.108;19.942;2023-12-04T01:33:49;101164.98;;;-2.26;85.05
60920;BME280;59039;52.108;19.942;2023-12-04T01:36:14;101166.10;;;-2.27;84.97
60920;BME280;59039;52.108;19.942;2023-12-04T01:38:39;101168.64;;;-2.28;84.90
60920;BME280;59039;52.108;19.942;2023-12-04T01:41:05;101166.22;;;-2.30;84.89
60920;BME280;59039;52.108;19.942;2023-12-04T01:43:30;101169.09;;;-2.31;84.71
60920;BME280;59039;52.108;19.942;2023-12-04T01:45:56;101166.41;;;-2.31;84.78
60920;BME280;59039;52.108;19.942;2023-12-04T01:48:23;101168.40;;;-2.32;84.83
60920;BME280;59039;52.108;19.942;2023-12-04T01:50:48;101169.70;;;-2.33;84.78
60920;BME280;59039;52.108;19.942;2023-12-04T01:53:14;101167.28;;;-2.35;84.84
60920;BME280;59039;52.108;19.942;2023-12-04T01:55:40;101164.84;;;-2.36;84.81
60920;BME280;59039;52.108;19.942;2023-12-04T01:58:06;101167.02;;;-2.38;84.85
60920;BME280;59039;52.108;19.942;2023-12-04T02:00:32;101164.60;;;-2.40;84.84
60920;BME280;59039;52.108;19.942;2023-12-04T02:02:58;101167.55;;;-2.43;84.86
60920;BME280;59039;52.108;19.942;2023-12-04T02:05:24;101168.02;;;-2.46;84.83
60920;BME280;59039;52.108;19.942;2023-12-04T02:07:51;101166.66;;;-2.48;84.93
60920;BME280;59039;52.108;19.942;2023-12-04T02:10:17;101168.86;;;-2.49;84.88
60920;BME280;59039;52.108;19.942;2023-12-04T02:12:42;101165.23;;;-2.53;84.82
60920;BME280;59039;52.108;19.942;2023-12-04T02:15:08;101166.56;;;-2.55;84.85
60920;BME280;59039;52.108;19.942;2023-12-04T02:17:34;101170.18;;;-2.58;84.78
60920;BME280;59039;52.108;19.942;2023-12-04T02:19:59;101173.27;;;-2.60;84.82
60920;BME280;59039;52.108;19.942;2023-12-04T02:22:24;101171.39;;;-2.62;84.84
60920;BME280;59039;52.108;19.942;2023-12-04T02:24:50;101168.31;;;-2.65;84.89
60920;BME280;59039;52.108;19.942;2023-12-04T02:27:23;101173.72;;;-2.67;84.94
60920;BME280;59039;52.108;19.942;2023-12-04T02:29:57;101171.51;;;-2.70;84.94
60920;BME280;59039;52.108;19.942;2023-12-04T02:32:24;101174.73;;;-2.71;85.00
60920;BME280;59039;52.108;19.942;2023-12-04T02:34:54;101176.05;;;-2.74;84.93
60920;BME280;59039;52.108;19.942;2023-12-04T02:37:21;101173.29;;;-2.76;85.00
60920;BME280;59039;52.108;19.942;2023-12-04T02:39:47;101170.16;;;-2.78;85.15
60920;BME280;59039;52.108;19.942;2023-12-04T02:42:13;101169.44;;;-2.78;85.25
60920;BME280;59039;52.108;19.942;2023-12-04T02:44:38;101169.10;;;-2.78;85.19
60920;BME280;59039;52.108;19.942;2023-12-04T02:47:04;101169.81;;;-2.78;85.36
60920;BME280;59039;52.108;19.942;2023-12-04T02:49:29;101167.30;;;-2.77;85.43
60920;BME280;59039;52.108;19.942;2023-12-04T02:51:54;101169.98;;;-2.78;85.50
60920;BME280;59039;52.108;19.942;2023-12-04T02:54:19;101167.66;;;-2.77;85.59
60920;BME280;59039;52.108;19.942;2023-12-04T02:56:44;101169.59;;;-2.76;85.72
60920;BME280;59039;52.108;19.942;2023-12-04T02:59:10;101172.04;;;-2.76;85.45
60920;BME280;59039;52.108;19.942;2023-12-04T03:01:35;101167.98;;;-2.76;85.62
60920;BME280;59039;52.108;19.942;2023-12-04T03:04:00;101173.14;;;-2.76;85.65
60920;BME280;59039;52.108;19.942;2023-12-04T03:06:25;101172.94;;;-2.76;85.88
60920;BME280;59039;52.108;19.942;2023-12-04T03:08:50;101174.70;;;-2.76;85.99
60920;BME280;59039;52.108;19.942;2023-12-04T03:11:16;101178.20;;;-2.74;85.96
60920;BME280;59039;52.108;19.942;2023-12-04T03:13:41;101183.66;;;-2.74;86.06
60920;BME280;59039;52.108;19.942;2023-12-04T03:16:15;101186.46;;;-2.72;86.06
60920;BME280;59039;52.108;19.942;2023-12-04T03:18:40;101190.02;;;-2.71;85.90
60920;BME280;59039;52.108;19.942;2023-12-04T03:21:06;101190.38;;;-2.73;85.69
60920;BME280;59039;52.108;19.942;2023-12-04T03:23:31;101197.17;;;-2.74;85.89
60920;BME280;59039;52.108;19.942;2023-12-04T03:25:56;101198.10;;;-2.75;85.86
60920;BME280;59039;52.108;19.942;2023-12-04T03:28:22;101194.39;;;-2.76;85.94
60920;BME280;59039;52.108;19.942;2023-12-04T03:30:47;101191.41;;;-2.76;85.89
60920;BME280;59039;52.108;19.942;2023-12-04T03:33:12;101191.80;;;-2.78;85.92
60920;BME280;59039;52.108;19.942;2023-12-04T03:35:37;101198.41;;;-2.79;85.85
60920;BME280;59039;52.108;19.942;2023-12-04T03:38:02;101197.34;;;-2.79;86.04
60920;BME280;59039;52.108;19.942;2023-12-04T03:40:28;101197.89;;;-2.80;85.90
60920;BME280;59039;52.108;19.942;2023-12-04T03:42:53;101192.60;;;-2.80;86.05
60920;BME280;59039;52.108;19.942;2023-12-04T03:45:18;101195.41;;;-2.80;85.90
60920;BME280;59039;52.108;19.942;2023-12-04T03:47:43;101189.45;;;-2.82;85.82
60920;BME280;59039;52.108;19.942;2023-12-04T03:50:09;101197.33;;;-2.83;85.94
60920;BME280;59039;52.108;19.942;2023-12-04T03:52:34;101194.15;;;-2.84;85.91
60920;BME280;59039;52.108;19.942;2023-12-04T03:54:59;101198.27;;;-2.85;85.69
60920;BME280;59039;52.108;19.942;2023-12-04T03:57:24;101199.41;;;-2.88;85.53
60920;BME280;59039;52.108;19.942;2023-12-04T03:59:50;101201.08;;;-2.90;85.78
60920;BME280;59039;52.108;19.942;2023-12-04T04:02:15;101204.14;;;-2.91;85.69
60920;BME280;59039;52.108;19.942;2023-12-04T04:04:40;101206.30;;;-2.93;85.63
60920;BME280;59039;52.108;19.942;2023-12-04T04:07:05;101202.80;;;-2.94;85.69
60920;BME280;59039;52.108;19.942;2023-12-04T04:09:30;101204.95;;;-2.95;85.71
60920;BME280;59039;52.108;19.942;2023-12-04T04:11:56;101202.81;;;-2.95;85.69
60920;BME280;59039;52.108;19.942;2023-12-04T04:14:21;101203.36;;;-2.96;85.67
60920;BME280;59039;52.108;19.942;2023-12-04T04:16:46;101205.33;;;-2.96;85.72
60920;BME280;59039;52.108;19.942;2023-12-04T04:19:11;101206.05;;;-2.96;85.75
60920;BME280;59039;52.108;19.942;2023-12-04T04:21:40;101206.95;;;-2.97;85.74
60920;BME280;59039;52.108;19.942;2023-12-04T04:24:05;101206.97;;;-2.97;85.71
60920;BME280;59039;52.108;19.942;2023-12-04T04:26:31;101203.97;;;-2.97;85.75
60920;BME280;59039;52.108;19.942;2023-12-04T04:28:56;101207.86;;;-2.97;85.79
60920;BME280;59039;52.108;19.942;2023-12-04T04:31:21;101204.67;;;-2.98;85.70
60920;BME280;59039;52.108;19.942;2023-12-04T04:33:46;101210.89;;;-2.97;85.82
60920;BME280;59039;52.108;19.942;2023-12-04T04:36:11;101207.88;;;-2.98;85.77
60920;BME280;59039;52.108;19.942;2023-12-04T04:38:39;101210.25;;;-3.00;85.75
60920;BME280;59039;52.108;19.942;2023-12-04T04:41:04;101214.16;;;-3.00;85.73
60920;BME280;59039;52.108;19.942;2023-12-04T04:43:29;101213.28;;;-3.00;85.78
60920;BME280;59039;52.108;19.942;2023-12-04T04:45:55;101210.61;;;-3.00;85.88
60920;BME280;59039;52.108;19.942;2023-12-04T04:48:20;101210.23;;;-2.99;85.72
60920;BME280;59039;52.108;19.942;2023-12-04T04:50:45;101213.25;;;-2.99;85.67
60920;BME280;59039;52.108;19.942;2023-12-04T04:53:10;101220.34;;;-2.99;85.93
60920;BME280;59039;52.108;19.942;2023-12-04T04:55:35;101217.13;;;-2.99;85.86
60920;BME280;59039;52.108;19.942;2023-12-04T04:58:01;101212.70;;;-2.99;85.85
60920;BME280;59039;52.108;19.942;2023-12-04T05:00:26;101209.73;;;-3.00;85.93
60920;BME280;59039;52.108;19.942;2023-12-04T05:02:51;101212.17;;;-2.99;85.92
60920;BME280;59039;52.108;19.942;2023-12-04T05:05:16;101212.38;;;-2.99;85.80
60920;BME280;59039;52.108;19.942;2023-12-04T05:07:42;101209.91;;;-3.00;85.90
60920;BME280;59039;52.108;19.942;2023-12-04T05:10:07;101209.52;;;-2.99;85.96
60920;BME280;59039;52.108;19.942;2023-12-04T05:12:32;101199.42;;;-2.99;85.90
60920;BME280;59039;52.108;19.942;2023-12-04T05:14:57;101202.63;;;-3.00;85.70
60920;BME280;59039;52.108;19.942;2023-12-04T05:17:23;101196.63;;;-3.01;85.82
60920;BME280;59039;52.108;19.942;2023-12-04T05:19:48;101196.98;;;-3.01;85.75
60920;BME280;59039;52.108;19.942;2023-12-04T05:22:13;101199.52;;;-3.02;85.80
60920;BME280;59039;52.108;19.942;2023-12-04T05:24:38;101200.91;;;-3.02;85.79
60920;BME280;59039;52.108;19.942;2023-12-04T05:27:04;101200.55;;;-3.01;85.94
60920;BME280;59039;52.108;19.942;2023-12-04T05:29:29;101205.15;;;-3.01;85.94
60920;BME280;59039;52.108;19.942;2023-12-04T05:31:54;101207.09;;;-3.01;85.93
60920;BME280;59039;52.108;19.942;2023-12-04T05:34:20;101209.69;;;-2.99;86.08
60920;BME280;59039;52.108;19.942;2023-12-04T05:36:45;101211.39;;;-2.97;86.01
60920;BME280;59039;52.108;19.942;2023-12-04T05:39:10;101206.92;;;-2.95;86.04
60920;BME280;59039;52.108;19.942;2023-12-04T05:41:35;101209.52;;;-2.94;86.07
60920;BME280;59039;52.108;19.942;2023-12-04T05:44:00;101209.31;;;-2.92;86.19
60920;BME280;59039;52.108;19.942;2023-12-04T05:46:26;101209.61;;;-2.91;85.96
60920;BME280;59039;52.108;19.942;2023-12-04T05:48:51;101211.41;;;-2.91;85.86
60920;BME280;59039;52.108;19.942;2023-12-04T05:51:16;101211.44;;;-2.92;86.02
60920;BME280;59039;52.108;19.942;2023-12-04T05:53:41;101214.45;;;-2.92;86.03
60920;BME280;59039;52.108;19.942;2023-12-04T05:56:07;101214.95;;;-2.91;85.95
60920;BME280;59039;52.108;19.942;2023-12-04T05:58:33;101212.48;;;-2.92;86.07
60920;BME280;59039;52.108;19.942;2023-12-04T06:00:58;101212.09;;;-2.91;86.01
60920;BME280;59039;52.108;19.942;2023-12-04T06:03:23;101216.70;;;-2.91;86.11
60920;BME280;59039;52.108;19.942;2023-12-04T06:05:48;101219.34;;;-2.90;86.07
60920;BME280;59039;52.108;19.942;2023-12-04T06:08:13;101220.23;;;-2.90;86.13
60920;BME280;59039;52.108;19.942;2023-12-04T06:10:39;101220.54;;;-2.89;86.18
60920;BME280;59039;52.108;19.942;2023-12-04T06:13:04;101219.63;;;-2.88;86.10
60920;BME280;59039;52.108;19.942;2023-12-04T06:15:29;101215.02;;;-2.88;85.96
60920;BME280;59039;52.108;19.942;2023-12-04T06:17:54;101218.88;;;-2.87;86.11
60920;BME280;59039;52.108;19.942;2023-12-04T06:20:19;101215.33;;;-2.87;86.17
60920;BME280;59039;52.108;19.942;2023-12-04T06:22:45;101220.42;;;-2.85;86.04
60920;BME280;59039;52.108;19.942;2023-12-04T06:25:10;101219.86;;;-2.84;86.10
60920;BME280;59039;52.108;19.942;2023-12-04T06:27:36;101219.98;;;-2.83;86.22
60920;BME280;59039;52.108;19.942;2023-12-04T06:30:02;101217.63;;;-2.81;86.05
60920;BME280;59039;52.108;19.942;2023-12-04T06:32:28;101218.67;;;-2.80;86.04
60920;BME280;59039;52.108;19.942;2023-12-04T06:34:53;101215.66;;;-2.80;86.04
60920;BME280;59039;52.108;19.942;2023-12-04T06:37:19;101217.38;;;-2.79;86.17
60920;BME280;59039;52.108;19.942;2023-12-04T06:39:45;101220.54;;;-2.78;86.06
60920;BME280;59039;52.108;19.942;2023-12-04T06:42:13;101222.83;;;-2.78;85.96
60920;BME280;59039;52.108;19.942;2023-12-04T06:44:38;101224.23;;;-2.77;85.94
60920;BME280;59039;52.108;19.942;2023-12-04T06:47:04;101224.05;;;-2.77;85.95
60920;BME280;59039;52.108;19.942;2023-12-04T06:49:33;101222.27;;;-2.76;85.88
60920;BME280;59039;52.108;19.942;2023-12-04T06:51:59;101221.57;;;-2.77;85.75
60920;BME280;59039;52.108;19.942;2023-12-04T06:54:24;101221.42;;;-2.78;85.82
60920;BME280;59039;52.108;19.942;2023-12-04T06:56:49;101220.71;;;-2.78;85.83
60920;BME280;59039;52.108;19.942;2023-12-04T06:59:15;101226.02;;;-2.78;85.88
60920;BME280;59039;52.108;19.942;2023-12-04T07:01:40;101227.27;;;-2.77;85.98
60920;BME280;59039;52.108;19.942;2023-12-04T07:04:05;101229.52;;;-2.76;86.15
60920;BME280;59039;52.108;19.942;2023-12-04T07:06:30;101227.16;;;-2.74;86.06
60920;BME280;59039;52.108;19.942;2023-12-04T07:08:55;101228.02;;;-2.74;86.02
60920;BME280;59039;52.108;19.942;2023-12-04T07:11:21;101229.94;;;-2.72;86.04
60920;BME280;59039;52.108;19.942;2023-12-04T07:13:46;101234.17;;;-2.71;86.00
60920;BME280;59039;52.108;19.942;2023-12-04T07:16:11;101233.23;;;-2.70;86.02
60920;BME280;59039;52.108;19.942;2023-12-04T07:18:36;101234.43;;;-2.69;85.92
60920;BME280;59039;52.108;19.942;2023-12-04T07:21:02;101238.13;;;-2.68;85.92
60920;BME280;59039;52.108;19.942;2023-12-04T07:23:27;101236.53;;;-2.67;85.83
60920;BME280;59039;52.108;19.942;2023-12-04T07:25:52;101243.61;;;-2.67;85.95
60920;BME280;59039;52.108;19.942;2023-12-04T07:28:17;101235.42;;;-2.67;85.87
60920;BME280;59039;52.108;19.942;2023-12-04T07:30:43;101244.08;;;-2.65;85.89
60920;BME280;59039;52.108;19.942;2023-12-04T07:33:08;101237.81;;;-2.64;85.88
60920;BME280;59039;52.108;19.942;2023-12-04T07:35:33;101236.89;;;-2.63;85.86
60920;BME280;59039;52.108;19.942;2023-12-04T07:37:58;101241.99;;;-2.62;85.83
60920;BME280;59039;52.108;19.942;2023-12-04T07:40:23;101239.69;;;-2.61;85.66
60920;BME280;59039;52.108;19.942;2023-12-04T07:42:49;101242.16;;;-2.61;85.55
60920;BME280;59039;52.108;19.942;2023-12-04T07:45:14;101235.23;;;-2.61;85.59
60920;BME280;59039;52.108;19.942;2023-12-04T07:47:39;101236.48;;;-2.60;85.60
60920;BME280;59039;52.108;19.942;2023-12-04T07:50:05;101237.34;;;-2.60;85.50
60920;BME280;59039;52.108;19.942;2023-12-04T07:52:30;101239.79;;;-2.59;85.49
60920;BME280;59039;52.108;19.942;2023-12-04T07:54:55;101241.89;;;-2.58;85.56
60920;BME280;59039;52.108;19.942;2023-12-04T07:57:21;101243.27;;;-2.57;85.53
60920;BME280;59039;52.108;19.942;2023-12-04T07:59:46;101244.62;;;-2.55;85.47
60920;BME280;59039;52.108;19.942;2023-12-04T08:02:11;101248.33;;;-2.54;85.41
60920;BME280;59039;52.108;19.942;2023-12-04T08:04:36;101243.67;;;-2.53;85.44
60920;BME280;59039;52.108;19.942;2023-12-04T08:07:02;101243.58;;;-2.50;85.57
60920;BME280;59039;52.108;19.942;2023-12-04T08:09:27;101244.91;;;-2.47;85.54
60920;BME280;59039;52.108;19.942;2023-12-04T08:11:52;101242.89;;;-2.45;85.35
60920;BME280;59039;52.108;19.942;2023-12-04T08:14:17;101244.23;;;-2.43;85.25
60920;BME280;59039;52.108;19.942;2023-12-04T08:16:42;101245.57;;;-2.41;85.21
60920;BME280;59039;52.108;19.942;2023-12-04T08:19:08;101244.23;;;-2.38;85.14
60920;BME280;59039;52.108;19.942;2023-12-04T08:21:33;101247.56;;;-2.37;85.05
60920;BME280;59039;52.108;19.942;2023-12-04T08:23:58;101249.61;;;-2.35;85.00
60920;BME280;59039;52.108;19.942;2023-12-04T08:26:24;101255.91;;;-2.32;84.95
60920;BME280;59039;52.108;19.942;2023-12-04T08:28:53;101257.98;;;-2.30;84.95
60920;BME280;59039;52.108;19.942;2023-12-04T08:31:18;101261.99;;;-2.28;85.00
60920;BME280;59039;52.108;19.942;2023-12-04T08:33:43;101261.92;;;-2.26;84.91
60920;BME280;59039;52.108;19.942;2023-12-04T08:36:10;101263.61;;;-2.23;84.87
60920;BME280;59039;52.108;19.942;2023-12-04T08:38:35;101265.11;;;-2.21;84.99
60920;BME280;59039;52.108;19.942;2023-12-04T08:41:00;101264.14;;;-2.18;84.96
60920;BME280;59039;52.108;19.942;2023-12-04T08:43:25;101269.73;;;-2.15;85.02
60920;BME280;59039;52.108;19.942;2023-12-04T08:45:51;101274.58;;;-2.12;85.07
60920;BME280;59039;52.108;19.942;2023-12-04T08:48:16;101275.67;;;-2.07;85.05
60920;BME280;59039;52.108;19.942;2023-12-04T08:50:41;101283.48;;;-2.02;85.08
60920;BME280;59039;52.108;19.942;2023-12-04T08:53:06;101276.45;;;-1.99;84.89
60920;BME280;59039;52.108;19.942;2023-12-04T08:55:32;101276.16;;;-1.96;84.78
60920;BME280;59039;52.108;19.942;2023-12-04T08:57:57;101274.10;;;-1.93;84.84
60920;BME280;59039;52.108;19.942;2023-12-04T09:00:22;101274.16;;;-1.90;84.74
60920;BME280;59039;52.108;19.942;2023-12-04T09:02:48;101274.23;;;-1.87;84.77
60920;BME280;59039;52.108;19.942;2023-12-04T09:05:13;101273.45;;;-1.84;84.63
60920;BME280;59039;52.108;19.942;2023-12-04T09:07:39;101277.04;;;-1.81;84.80
60920;BME280;59039;52.108;19.942;2023-12-04T09:10:04;101281.21;;;-1.78;84.62
60920;BME280;59039;52.108;19.942;2023-12-04T09:12:30;101283.59;;;-1.75;84.58
60920;BME280;59039;52.108;19.942;2023-12-04T09:14:55;101285.76;;;-1.71;84.64
60920;BME280;59039;52.108;19.942;2023-12-04T09:17:20;101284.08;;;-1.69;84.52
60920;BME280;59039;52.108;19.942;2023-12-04T09:19:46;101281.27;;;-1.65;84.63
60920;BME280;59039;52.108;19.942;2023-12-04T09:22:11;101278.33;;;-1.62;84.32
60920;BME280;59039;52.108;19.942;2023-12-04T09:24:36;101278.04;;;-1.59;84.29
60920;BME280;59039;52.108;19.942;2023-12-04T09:27:01;101277.96;;;-1.57;84.32
60920;BME280;59039;52.108;19.942;2023-12-04T09:29:26;101274.88;;;-1.55;84.15
60920;BME280;59039;52.108;19.942;2023-12-04T09:31:52;101276.23;;;-1.53;84.06
60920;BME280;59039;52.108;19.942;2023-12-04T09:34:17;101272.77;;;-1.51;84.04
60920;BME280;59039;52.108;19.942;2023-12-04T09:36:42;101268.94;;;-1.49;84.13
60920;BME280;59039;52.108;19.942;2023-12-04T09:39:07;101270.33;;;-1.48;83.99
60920;BME280;59039;52.108;19.942;2023-12-04T09:41:33;101270.06;;;-1.45;84.00
60920;BME280;59039;52.108;19.942;2023-12-04T09:43:58;101266.96;;;-1.43;83.95
60920;BME280;59039;52.108;19.942;2023-12-04T09:46:24;101265.98;;;-1.41;83.80
60920;BME280;59039;52.108;19.942;2023-12-04T09:48:51;101259.50;;;-1.38;83.84
60920;BME280;59039;52.108;19.942;2023-12-04T09:51:18;101260.10;;;-1.36;84.02
60920;BME280;59039;52.108;19.942;2023-12-04T09:53:47;101263.02;;;-1.33;84.00
60920;BME280;59039;52.108;19.942;2023-12-04T09:56:14;101265.98;;;-1.31;83.91
60920;BME280;59039;52.108;19.942;2023-12-04T09:58:41;101270.17;;;-1.30;83.81
60920;BME280;59039;52.108;19.942;2023-12-04T10:01:07;101271.38;;;-1.28;83.80
60920;BME280;59039;52.108;19.942;2023-12-04T10:03:34;101273.99;;;-1.27;83.82
60920;BME280;59039;52.108;19.942;2023-12-04T10:06:00;101270.41;;;-1.26;83.72
60920;BME280;59039;52.108;19.942;2023-12-04T10:08:25;101265.92;;;-1.25;83.72
60920;BME280;59039;52.108;19.942;2023-12-04T10:10:50;101263.19;;;-1.23;83.62
60920;BME280;59039;52.108;19.942;2023-12-04T10:13:15;101264.87;;;-1.21;83.78
60920;BME280;59039;52.108;19.942;2023-12-04T10:15:48;101262.66;;;-1.19;83.57
60920;BME280;59039;52.108;19.942;2023-12-04T10:18:31;101260.08;;;-1.16;83.62
60920;BME280;59039;52.108;19.942;2023-12-04T10:20:57;101261.77;;;-1.14;83.52
60920;BME280;59039;52.108;19.942;2023-12-04T10:23:39;101263.11;;;-1.12;83.46
60920;BME280;59039;52.108;19.942;2023-12-04T10:26:05;101264.56;;;-1.08;83.36
60920;BME280;59039;52.108;19.942;2023-12-04T10:28:30;101261.29;;;-1.07;83.30
60920;BME280;59039;52.108;19.942;2023-12-04T10:30:55;101257.94;;;-1.03;83.45
60920;BME280;59039;52.108;19.942;2023-12-04T10:33:20;101254.76;;;-0.99;83.39
60920;BME280;59039;52.108;19.942;2023-12-04T10:35:46;101248.70;;;-0.94;83.64
60920;BME280;59039;52.108;19.942;2023-12-04T10:38:11;101248.86;;;-0.89;83.51
60920;BME280;59039;52.108;19.942;2023-12-04T10:40:36;101248.66;;;-0.84;83.40
60920;BME280;59039;52.108;19.942;2023-12-04T10:45:38;101252.77;;;-0.79;82.64
60920;BME280;59039;52.108;19.942;2023-12-04T10:48:04;101257.27;;;-0.77;82.73
60920;BME280;59039;52.108;19.942;2023-12-04T10:50:32;101254.66;;;-0.74;82.71
60920;BME280;59039;52.108;19.942;2023-12-04T10:52:58;101254.14;;;-0.70;82.48
60920;BME280;59039;52.108;19.942;2023-12-04T10:55:25;101252.60;;;-0.67;82.43
60920;BME280;59039;52.108;19.942;2023-12-04T10:57:51;101256.53;;;-0.63;82.66
60920;BME280;59039;52.108;19.942;2023-12-04T11:00:19;101255.31;;;-0.59;82.70
60920;BME280;59039;52.108;19.942;2023-12-04T11:02:45;101256.41;;;-0.56;82.68
60920;BME280;59039;52.108;19.942;2023-12-04T11:05:14;101252.16;;;-0.52;82.57
60920;BME280;59039;52.108;19.942;2023-12-04T11:07:44;101255.36;;;-0.48;82.41
60920;BME280;59039;52.108;19.942;2023-12-04T11:10:13;101256.27;;;-0.44;82.49
60920;BME280;59039;52.108;19.942;2023-12-04T11:12:44;101255.08;;;-0.41;82.33
60920;BME280;59039;52.108;19.942;2023-12-04T11:15:14;101251.06;;;-0.38;82.15
60920;BME280;59039;52.108;19.942;2023-12-04T11:17:42;101248.48;;;-0.36;82.06
60920;BME280;59039;52.108;19.942;2023-12-04T11:20:11;101247.13;;;-0.33;82.10
60920;BME280;59039;52.108;19.942;2023-12-04T11:22:38;101244.75;;;-0.32;82.12
60920;BME280;59039;52.108;19.942;2023-12-04T11:25:06;101243.10;;;-0.31;81.87
60920;BME280;59039;52.108;19.942;2023-12-04T11:27:31;101243.05;;;-0.30;81.63
60920;BME280;59039;52.108;19.942;2023-12-04T11:29:57;101242.52;;;-0.30;81.13
60920;BME280;59039;52.108;19.942;2023-12-04T11:32:24;101238.94;;;-0.30;81.39
60920;BME280;59039;52.108;19.942;2023-12-04T11:34:50;101238.77;;;-0.30;81.13
60920;BME280;59039;52.108;19.942;2023-12-04T11:37:16;101238.63;;;-0.30;81.16
60920;BME280;59039;52.108;19.942;2023-12-04T11:39:41;101243.45;;;-0.31;81.08
60920;BME280;59039;52.108;19.942;2023-12-04T11:42:06;101244.73;;;-0.32;81.07
60920;BME280;59039;52.108;19.942;2023-12-04T11:44:32;101242.48;;;-0.33;80.64
60920;BME280;59039;52.108;19.942;2023-12-04T11:47:05;101238.80;;;-0.35;80.71
60920;BME280;59039;52.108;19.942;2023-12-04T11:49:31;101235.44;;;-0.35;80.96
60920;BME280;59039;52.108;19.942;2023-12-04T11:52:00;101231.73;;;-0.35;80.76
60920;BME280;59039;52.108;19.942;2023-12-04T11:54:27;101232.79;;;-0.36;80.96
60920;BME280;59039;52.108;19.942;2023-12-04T11:56:57;101228.38;;;-0.37;80.81
60920;BME280;59039;52.108;19.942;2023-12-04T11:59:22;101228.41;;;-0.37;80.67
60920;BME280;59039;52.108;19.942;2023-12-04T12:01:50;101228.39;;;-0.37;80.71
60920;BME280;59039;52.108;19.942;2023-12-04T12:04:15;101229.66;;;-0.37;80.40
60920;BME280;59039;52.108;19.942;2023-12-04T12:06:40;101224.88;;;-0.38;80.72
60920;BME280;59039;52.108;19.942;2023-12-04T12:09:07;101219.70;;;-0.37;80.87
60920;BME280;59039;52.108;19.942;2023-12-04T12:11:32;101216.35;;;-0.38;80.63
60920;BME280;59039;52.108;19.942;2023-12-04T12:13:59;101211.91;;;-0.39;80.69
60920;BME280;59039;52.108;19.942;2023-12-04T12:16:24;101210.45;;;-0.38;80.81
60920;BME280;59039;52.108;19.942;2023-12-04T12:18:50;101212.20;;;-0.37;80.34
60920;BME280;59039;52.108;19.942;2023-12-04T12:21:15;101210.21;;;-0.36;80.39
60920;BME280;59039;52.108;19.942;2023-12-04T12:23:40;101207.53;;;-0.36;80.16
60920;BME280;59039;52.108;19.942;2023-12-04T12:26:06;101206.45;;;-0.36;80.01
60920;BME280;59039;52.108;19.942;2023-12-04T12:28:31;101202.72;;;-0.36;80.06
60920;BME280;59039;52.108;19.942;2023-12-04T12:30:56;101201.45;;;-0.35;79.71
60920;BME280;59039;52.108;19.942;2023-12-04T12:33:26;101203.22;;;-0.35;79.88
60920;BME280;59039;52.108;19.942;2023-12-04T12:35:51;101195.84;;;-0.37;79.72